Terminal Aerodrome Forecast
Issued by NWS

Home | Current Version | Previous Version | Text Only | Print | Product List | Glossary On
Versions: 1 2 3 4 5 6 7 8 9 10 11 12 13 14 15 16
000
FTUS43 KDTX 311726
TAFDET
TAF
KDET 311726Z 3118/0118 32015KT 6SM -SHRA BR OVC012
     FM312100 36021G32KT 4SM -SHRA OVC012
     FM010200 36015G25KT 4SM -SHRASN OVC015
     FM011000 36015G25KT P6SM OVC015
     FM011600 36014G20KT P6SM OVC025=

USA.gov is the U.S. government's official web portal to all federal, state and local government web resources and services.